Tomah, WI

2:44 AM CDT on August 28, 2016 (GMT -0500)
Water Mill | | Change Station
Active Advisory: Special Statement

Elev 950 ft 44.05 °N, 90.46 °W | Updated 1 minute ago

Overcast
Overcast
66.0 °F
Feels Like 66.0 °F
N
0.0
Wind Variable Wind from SW
Gusts 0.0 mph

Today
High -- | Low -- °F
--% Chance of Precip.
Yesterday
High -- | Low -- °F
Precip. -- in
Pressure 30.12 in
Visibility 10.0 miles
Clouds Overcast 400 ft
Dew Point 66 °F
Humidity 100%
Rainfall 0.00 in
Snow Depth Not available.
6:21 AM 7:43 PM
Waning Crescent, 17% visible
METAR KVOK 280658Z AUTO 24003KT 10SM OVC004 19/19 A3011 RMK AO2 SLP197
Pressure 30.12 in
Visibility 10.0 miles
Clouds Overcast 400 ft
Dew Point 66 °F
Humidity 100%
Rainfall 0.00 in
Snow Depth Not available.
6:21 AM 7:43 PM
Waning Crescent, 17% visible
METAR KVOK 280658Z AUTO 24003KT 10SM OVC004 19/19 A3011 RMK AO2 SLP197

10-Day Weather Forecast

Almanac

Astronomy

Aug. 28, 2016 Rise Set
Actual Time
Civil Twilight
Nautical Twilight
Astronomical Twilight
Moon
Length of Visible Light
Length of Day
Tomorrow will be .
, % of the Moon is Illuminated

Today's Extremes

State Highs State Lows

Community

WunderPhotos

Upload Photos

1,935,533 photos uploaded!

WunderBlog® & News

Nearby

Air Quality

  Air Quality AQ Index Pollutant
Not available.

Snow Depth

Station Depth Elevation

Earthquake Activity

City Distance Mag. Time & Date
Minimum magnitude displayed is 2.5.

Coastal Water Temperatures

Place Temperature

Stations

Nearby Weather Stations

Station Location Temp. Windchill Dew Point Humidity Wind Precip. Elev Updated Type
                   

Watches & Warnings

Special Statement
Issued: 12:22 AM CDT Aug. 28, 2016 – National Weather Service

... Patchy dense fog overnight...

Be prepared for patchy dense fog early this morning. Visibility
could dip to near zero in spots. If traveling, slow down and drive
accordingly to the conditions.


Das

1222 am CDT sun Aug 28 2016

... Patchy dense fog overnight...

Be prepared for patchy dense fog early this morning. Visibility
could dip to near zero in spots. If traveling, slow down and drive
accordingly to the conditions.


Das